Time;durP1;ratioP1;P1;durP2;ratioP2;P2;SDS_P1;SDS_P2;PMS_P1;PMS_P2;Temp;Humidity;BMP_temperature;BMP_pressure;BME280_temperature;BME280_humidity;BME280_pressure;Samples;Min_cycle;Max_cycle;Signal;HPM_P1;HPM_P2
2024/01/24 00:00:13;;;;;;;16.55;5.68;;;;;;;;;;5030477;28;20037;-79
2024/01/24 00:02:39;;;;;;;6.65;4.32;;;;;;;;;;5030977;28;20215;-79
2024/01/24 00:05:06;;;;;;;6.57;2.78;;;;;;;;;;5030662;28;20357;-80
2024/01/24 00:07:32;;;;;;;5.18;2.60;;;;;;;;;;5031249;28;20020;-79
2024/01/24 00:09:58;;;;;;;3.33;2.30;;;;;;;;;;5030515;28;20033;-79
2024/01/24 00:12:24;;;;;;;1.27;1.08;;;;;;;;;;5031206;28;20158;-80
2024/01/24 00:14:50;;;;;;;1.70;1.33;;;;;;;;;;5030685;28;20149;-80
2024/01/24 00:17:16;;;;;;;3.67;1.27;;;;;;;;;;5030794;28;20080;-79
2024/01/24 00:19:42;;;;;;;2.67;2.03;;;;;;;;;;5030095;28;20034;-79
2024/01/24 00:22:08;;;;;;;8.73;1.77;;;;;;;;;;5030308;28;20411;-80
2024/01/24 00:24:34;;;;;;;3.60;1.77;;;;;;;;;;5030109;28;20495;-80
2024/01/24 00:27:00;;;;;;;7.75;1.30;;;;;;;;;;5030656;28;20048;-80
2024/01/24 00:29:26;;;;;;;10.55;1.80;;;;;;;;;;5029854;28;20556;-79
2024/01/24 00:31:53;;;;;;;2.38;1.33;;;;;;;;;;5030045;28;20048;-79
2024/01/24 00:34:19;;;;;;;6.72;2.10;;;;;;;;;;5030858;28;20021;-79
2024/01/24 00:36:45;;;;;;;5.20;2.63;;;;;;;;;;5029461;28;20029;-80
2024/01/24 00:39:13;;;;;;;12.38;3.13;;;;;;;;;;5030878;28;20532;-80
2024/01/24 00:41:41;;;;;;;6.45;2.53;;;;;;;;;;5031729;28;20014;-79
2024/01/24 00:44:07;;;;;;;4.53;1.70;;;;;;;;;;5030632;28;20490;-79
2024/01/24 00:46:33;;;;;;;20.70;2.38;;;;;;;;;;5032704;28;20027;-80
2024/01/24 00:48:59;;;;;;;2.38;0.95;;;;;;;;;;5030883;28;20104;-80
2024/01/24 00:51:25;;;;;;;9.65;1.75;;;;;;;;;;5029554;28;20029;-79
2024/01/24 00:53:51;;;;;;;1.80;1.13;;;;;;;;;;5029493;28;20450;-80
2024/01/24 00:56:17;;;;;;;5.20;1.42;;;;;;;;;;5030078;28;20022;-79
2024/01/24 00:58:43;;;;;;;2.47;1.30;;;;;;;;;;5029858;28;20047;-80
2024/01/24 01:01:10;;;;;;;4.13;1.75;;;;;;;;;;5033788;28;20037;-79
2024/01/24 01:03:36;;;;;;;4.35;2.30;;;;;;;;;;5025749;28;20041;-80
2024/01/24 01:06:04;;;;;;;7.50;3.65;;;;;;;;;;5032486;28;20025;-79
2024/01/24 01:08:30;;;;;;;1.63;1.25;;;;;;;;;;5032826;28;20029;-80
2024/01/24 01:10:56;;;;;;;2.30;1.35;;;;;;;;;;5033036;28;20021;-78
2024/01/24 01:13:22;;;;;;;2.03;1.30;;;;;;;;;;5038822;28;20543;-79
2024/01/24 01:15:48;;;;;;;6.80;1.73;;;;;;;;;;5040865;28;20029;-80
2024/01/24 01:18:14;;;;;;;5.22;1.10;;;;;;;;;;5038512;28;20094;-79
2024/01/24 01:20:40;;;;;;;4.25;1.27;;;;;;;;;;5045177;28;20029;-80
2024/01/24 01:23:06;;;;;;;5.57;1.55;;;;;;;;;;5034010;28;20029;-81
2024/01/24 01:25:32;;;;;;;3.45;1.90;;;;;;;;;;5033195;28;20029;-80
2024/01/24 01:27:58;;;;;;;1.52;0.90;;;;;;;;;;5034101;28;20060;-80
2024/01/24 01:30:24;;;;;;;1.02;0.93;;;;;;;;;;5032888;28;20037;-79
2024/01/24 01:32:51;;;;;;;1.65;0.82;;;;;;;;;;5033217;28;20025;-79
2024/01/24 01:35:17;;;;;;;1.85;1.20;;;;;;;;;;5032962;28;20045;-80
2024/01/24 01:37:42;;;;;;;1.65;1.50;;;;;;;;;;5032834;28;20114;-80
2024/01/24 01:40:09;;;;;;;14.77;1.73;;;;;;;;;;5034522;28;20406;-79
2024/01/24 01:42:36;;;;;;;1.38;0.90;;;;;;;;;;5052675;28;20055;-80
2024/01/24 01:45:03;;;;;;;1.40;0.83;;;;;;;;;;5050075;28;20051;-80
2024/01/24 01:47:29;;;;;;;9.00;1.75;;;;;;;;;;5032497;28;20033;-80
2024/01/24 01:49:55;;;;;;;3.40;1.85;;;;;;;;;;5032274;28;20128;-80
2024/01/24 01:52:24;;;;;;;2.63;0.82;;;;;;;;;;5034471;28;20408;-79
2024/01/24 01:54:51;;;;;;;2.40;1.00;;;;;;;;;;5036141;28;20393;-80
2024/01/24 01:57:17;;;;;;;1.65;0.95;;;;;;;;;;5052666;28;20016;-79
2024/01/24 01:59:43;;;;;;;2.15;1.00;;;;;;;;;;5051652;28;20098;-80
2024/01/24 02:02:10;;;;;;;4.38;1.20;;;;;;;;;;5052003;28;20025;-80
2024/01/24 02:04:36;;;;;;;1.83;1.30;;;;;;;;;;5037853;28;20048;-80
2024/01/24 02:07:02;;;;;;;5.10;1.80;;;;;;;;;;5052157;28;20029;-80
2024/01/24 02:09:29;;;;;;;6.57;1.00;;;;;;;;;;5051407;28;20017;-80
2024/01/24 02:11:55;;;;;;;8.18;0.90;;;;;;;;;;5040233;28;20402;-79
2024/01/24 02:14:21;;;;;;;5.10;1.38;;;;;;;;;;5047429;28;20545;-80
2024/01/24 02:16:47;;;;;;;3.50;1.00;;;;;;;;;;5040804;28;20021;-80
2024/01/24 02:19:13;;;;;;;3.28;1.67;;;;;;;;;;5051336;28;20033;-80
2024/01/24 02:21:39;;;;;;;1.92;1.00;;;;;;;;;;5051429;28;20017;-80
2024/01/24 02:24:12;;;;;;;1.25;1.10;;;;;;;;;;5036253;28;20480;-79
2024/01/24 02:26:38;;;;;;;0.73;0.68;;;;;;;;;;5032672;28;20028;-80
2024/01/24 02:29:04;;;;;;;1.23;1.13;;;;;;;;;;5032266;28;20052;-80
2024/01/24 02:31:30;;;;;;;1.10;1.00;;;;;;;;;;5032137;28;20104;-80
2024/01/24 02:33:57;;;;;;;3.15;0.80;;;;;;;;;;5031187;28;20104;-79
2024/01/24 02:36:22;;;;;;;2.85;1.00;;;;;;;;;;5032354;28;20033;-80
2024/01/24 02:38:48;;;;;;;0.75;0.60;;;;;;;;;;5031725;28;20022;-79
2024/01/24 02:41:17;;;;;;;10.00;2.25;;;;;;;;;;5031598;28;20032;-79
2024/01/24 02:43:43;;;;;;;3.20;1.73;;;;;;;;;;5031796;28;20592;-80
2024/01/24 02:46:09;;;;;;;2.50;0.98;;;;;;;;;;5031407;28;20026;-79
2024/01/24 02:48:35;;;;;;;1.48;1.38;;;;;;;;;;5031506;28;20486;-80
2024/01/24 02:51:01;;;;;;;4.35;1.60;;;;;;;;;;5031708;28;20491;-80
2024/01/24 02:53:27;;;;;;;3.40;1.50;;;;;;;;;;5031175;28;20509;-80
2024/01/24 02:55:53;;;;;;;7.80;0.80;;;;;;;;;;5031406;28;20308;-80
2024/01/24 02:58:19;;;;;;;4.00;2.28;;;;;;;;;;5031292;28;20072;-80
2024/01/24 03:00:45;;;;;;;11.50;1.95;;;;;;;;;;5031583;28;20040;-80
2024/01/24 03:03:11;;;;;;;1.10;0.85;;;;;;;;;;5034876;28;20027;-80
2024/01/24 03:05:37;;;;;;;2.20;1.35;;;;;;;;;;5039252;28;20401;-80
2024/01/24 03:08:03;;;;;;;0.93;0.75;;;;;;;;;;5044331;28;20133;-79
2024/01/24 03:10:29;;;;;;;4.15;1.40;;;;;;;;;;5031683;28;20029;-80
2024/01/24 03:12:55;;;;;;;2.67;1.05;;;;;;;;;;5033371;28;20023;-80
2024/01/24 03:15:21;;;;;;;2.45;1.17;;;;;;;;;;5042012;28;20405;-80
2024/01/24 03:17:47;;;;;;;1.08;0.80;;;;;;;;;;5047567;28;20028;-79
2024/01/24 03:20:14;;;;;;;3.75;0.88;;;;;;;;;;5051126;28;20067;-79
2024/01/24 03:22:40;;;;;;;3.88;1.83;;;6.30;99.90;;;;;;5032459;28;20032;-79
2024/01/24 03:25:07;;;;;;;6.32;1.45;;;;;;;;;;5028761;28;20037;-79
2024/01/24 03:27:33;;;;;;;4.63;1.45;;;;;;;;;;5030769;28;20022;-79
2024/01/24 03:29:59;;;;;;;3.92;1.98;;;;;;;;;;5031366;28;20143;-80
2024/01/24 03:32:25;;;;;;;12.10;3.53;;;;;;;;;;5031031;28;20033;-79
2024/01/24 03:34:52;;;;;;;9.15;3.67;;;;;;;;;;5030905;28;20029;-80
2024/01/24 03:37:18;;;;;;;12.83;3.37;;;;;;;;;;5031296;28;20047;-80
2024/01/24 03:39:44;;;;;;;2.75;1.98;;;;;;;;;;5031069;28;20029;-80
2024/01/24 03:42:10;;;;;;;13.18;3.28;;;;;;;;;;5031978;28;20398;-79
2024/01/24 03:44:36;;;;;;;4.88;1.88;;;;;;;;;;5030557;28;20037;-79
2024/01/24 03:47:02;;;;;;;14.32;2.45;;;;;;;;;;5031255;28;20017;-80
2024/01/24 03:49:29;;;;;;;3.90;2.17;;;;;;;;;;5030915;28;20029;-79
2024/01/24 03:51:55;;;;;;;3.95;1.90;;;;;;;;;;5030290;28;20033;-80
2024/01/24 03:54:22;;;;;;;0.80;0.80;;;;;;;;;;5042287;28;20146;-79
2024/01/24 03:56:48;;;;;;;2.08;1.10;;;;;;;;;;5049486;28;20373;-80
2024/01/24 03:59:14;;;;;;;3.90;1.55;;;;;;;;;;5050016;28;20112;-80
2024/01/24 04:01:40;;;;;;;7.78;1.80;;;;;;;;;;5049372;28;20029;-80
2024/01/24 04:04:07;;;;;;;3.25;1.70;;;;;;;;;;5050229;28;20036;-80
2024/01/24 04:06:33;;;;;;;4.18;2.13;;;;;;;;;;5049465;28;20036;-80
2024/01/24 04:08:59;;;;;;;1.75;1.48;;;;;;;;;;5049441;28;20029;-80
2024/01/24 04:11:25;;;;;;;0.70;0.70;;;;;;;;;;5034306;28;20029;-80
2024/01/24 04:13:53;;;;;;;1.63;0.98;;;5.80;99.90;;;;;;5042142;28;20026;-79
2024/01/24 04:16:19;;;;;;;0.60;0.60;;;;;;;;;;5039965;28;20108;-80
2024/01/24 04:18:45;;;;;;;2.30;1.25;;;;;;;;;;5038436;28;20506;-80
2024/01/24 04:21:11;;;;;;;0.50;0.50;;;;;;;;;;5030825;28;20030;-80
2024/01/24 04:23:37;;;;;;;3.50;0.85;;;;;;;;;;5029886;28;20605;-80
2024/01/24 04:26:06;;;;;;;9.02;1.00;;;;;;;;;;5030031;28;20092;-80
2024/01/24 04:28:32;;;;;;;0.85;0.60;;;;;;;;;;5028942;28;20379;-80
2024/01/24 04:30:58;;;;;;;4.25;0.63;;;;;;;;;;5029928;28;20399;-79
2024/01/24 04:33:24;;;;;;;5.43;1.55;;;;;;;;;;5030662;28;20101;-80
2024/01/24 04:35:50;;;;;;;3.57;2.20;;;;;;;;;;5029282;28;20026;-80
2024/01/24 04:38:16;;;;;;;3.63;2.28;;;;;;;;;;5029138;28;20057;-79
2024/01/24 04:40:43;;;;;;;7.18;2.05;;;;;;;;;;5029087;28;20025;-80
2024/01/24 04:43:08;;;;;;;3.58;1.85;;;;;;;;;;5029740;28;20426;-80
2024/01/24 04:45:37;;;;;;;2.40;1.98;;;;;;;;;;5048131;28;20060;-80
2024/01/24 04:48:03;;;;;;;1.98;1.20;;;;;;;;;;5049950;28;20447;-80
2024/01/24 04:50:29;;;;;;;2.33;1.50;;;;;;;;;;5046980;28;20036;-79
2024/01/24 04:52:55;;;;;;;3.20;1.50;;;;;;;;;;5042451;28;20036;-80
2024/01/24 04:55:21;;;;;;;1.92;1.73;;;;;;;;;;5048655;28;20453;-80
2024/01/24 04:57:47;;;;;;;1.92;1.65;;;;;;;;;;5035938;28;20044;-80
2024/01/24 05:00:13;;;;;;;3.55;1.90;;;;;;;;;;5048336;28;20405;-80
2024/01/24 05:02:39;;;;;;;2.10;1.48;;;;;;;;;;5048836;28;20146;-80
2024/01/24 05:05:06;;;;;;;1.17;1.05;;;;;;;;;;5047735;28;20116;-79
2024/01/24 05:07:33;;;;;;;1.05;0.88;;;;;;;;;;5047644;28;20109;-80
2024/01/24 05:09:59;;;;;;;2.80;1.63;;;;;;;;;;5048281;28;20057;-80
2024/01/24 05:12:25;;;;;;;1.88;1.50;;;;;;;;;;5034718;28;20063;-80
2024/01/24 05:14:51;;;;;;;2.15;0.85;;;;;;;;;;5044193;28;20097;-80
2024/01/24 05:17:18;;;;;;;1.05;0.90;;;;;;;;;;5029294;28;20049;-80
2024/01/24 05:19:44;;;;;;;2.00;1.10;;;;;;;;;;5029204;28;20104;-80
2024/01/24 05:22:10;;;;;;;0.65;0.60;;;;;;;;;;5029222;28;20061;-80
2024/01/24 05:24:36;;;;;;;1.42;0.60;;;;;;;;;;5048826;28;20041;-80
2024/01/24 05:27:02;;;;;;;0.50;0.50;;;;;;;;;;5048242;28;20028;-80
2024/01/24 05:29:28;;;;;;;1.20;0.77;;;;;;;;;;5049107;28;20059;-80
2024/01/24 05:31:54;;;;;;;0.90;0.73;;;;;;;;;;5035202;28;20029;-80
2024/01/24 05:34:20;;;;;;;0.57;0.57;;;;;;;;;;5035831;28;20021;-80
2024/01/24 05:36:46;;;;;;;0.45;0.45;;;;;;;;;;5048148;28;20040;-79
2024/01/24 05:39:14;;;;;;;3.45;1.00;;;;;;;;;;5048716;28;20552;-80
2024/01/24 05:41:40;;;;;;;0.57;0.55;;;;;;;;;;5035345;28;20487;-80
2024/01/24 05:44:06;;;;;;;1.55;0.70;;;;;;;;;;5048232;28;20110;-79
2024/01/24 05:46:32;;;;;;;2.15;1.23;;;;;;;;;;5043317;28;20489;-80
2024/01/24 05:49:00;;;;;;;0.73;0.70;;;;;;;;;;5052090;28;20025;-80
2024/01/24 05:51:26;;;;;;;0.80;0.68;;;;;;;;;;5050743;28;20036;-78
2024/01/24 05:53:52;;;;;;;7.47;3.38;;;;;;;;;;5051460;28;20029;-79
2024/01/24 05:56:18;;;;;;;5.28;2.70;;;;;;;;;;5050481;28;20037;-79
2024/01/24 05:58:44;;;;;;;5.38;2.00;;;;;;;;;;5051704;28;20486;-79
2024/01/24 06:01:10;;;;;;;8.43;2.03;;;;;;;;;;5042126;28;20026;-79
2024/01/24 06:03:36;;;;;;;9.68;2.13;;;;;;;;;;5040872;28;20083;-79
2024/01/24 06:06:02;;;;;;;2.80;1.92;;;;;;;;;;5039093;28;20029;-79
2024/01/24 06:08:31;;;;;;;6.80;1.40;;;;;;;;;;5035906;28;20591;-79
2024/01/24 06:10:57;;;;;;;2.92;1.88;;;;;;;;;;5034451;28;20136;-79
2024/01/24 06:13:23;;;;;;;5.70;1.95;;;;;;;;;;5026860;28;20029;-79
2024/01/24 06:15:50;;;;;;;3.40;1.20;;;6.40;99.90;;;;;;5035671;28;20494;-79
2024/01/24 06:18:16;;;;;;;2.83;1.65;;;;;;;;;;5030148;28;20068;-78
2024/01/24 06:20:42;;;;;;;2.80;2.40;;;;;;;;;;5035860;28;20029;-79
2024/01/24 06:23:08;;;;;;;13.52;1.92;;;;;;;;;;5032966;28;20025;-79
2024/01/24 06:25:34;;;;;;;2.83;2.55;;;;;;;;;;5033919;28;20109;-77
2024/01/24 06:28:00;;;;;;;4.93;1.23;;;;;;;;;;5037468;28;20033;-77
2024/01/24 06:30:26;;;;;;;5.03;2.50;;;;;;;;;;5036256;28;20033;-77
2024/01/24 06:32:52;;;;;;;7.55;2.40;;;;;;;;;;5039964;28;20312;-79
2024/01/24 06:35:19;;;;;;;3.78;1.63;;;;;;;;;;5036905;28;20047;-79
2024/01/24 06:37:45;;;;;;;5.18;2.92;;;;;;;;;;5046603;28;20028;-78
2024/01/24 06:40:11;;;;;;;9.43;3.60;;;;;;;;;;5036417;28;20865;-78
2024/01/24 06:42:40;;;;;;;8.38;3.28;;;6.30;99.90;;;;;;5028223;28;20429;-79
2024/01/24 06:45:07;;;;;;;3.38;1.70;;;6.40;99.90;;;;;;5019822;28;20122;-79
2024/01/24 06:47:33;;;;;;;8.05;2.53;;;;;;;;;;5020023;28;20017;-79
2024/01/24 06:49:59;;;;;;;6.07;3.97;;;;;;;;;;5033103;28;20029;-79
2024/01/24 06:52:26;;;;;;;5.20;2.88;;;;;;;;;;5037897;28;20428;-78
2024/01/24 06:54:52;;;;;;;4.88;2.65;;;;;;;;;;5041768;28;20117;-79
2024/01/24 06:57:18;;;;;;;6.93;3.25;;;;;;;;;;5037478;28;20383;-78
2024/01/24 06:59:44;;;;;;;8.60;3.65;;;;;;;;;;5040347;28;20036;-78
2024/01/24 07:02:10;;;;;;;17.17;3.88;;;6.80;99.90;;;;;;5038331;28;20036;-78
2024/01/24 07:04:35;;;;;;;4.75;2.42;;;6.50;99.90;;;;;;5043057;28;20167;-78
2024/01/24 07:07:01;;;;;;;5.00;2.03;;;;;;;;;;5037135;28;20037;-78
2024/01/24 07:09:27;;;;;;;3.05;2.55;;;;;;;;;;5041183;28;20088;-78
2024/01/24 07:11:53;;;;;;;3.63;2.00;;;;;;;;;;5029385;28;20033;-79
2024/01/24 07:14:19;;;;;;;3.25;1.77;;;;;;;;;;5029550;28;20032;-78
2024/01/24 07:16:45;;;;;;;2.25;1.70;;;;;;;;;;5029802;28;20178;-78
2024/01/24 07:19:11;;;;;;;4.88;2.55;;;;;;;;;;5029372;28;20108;-79
2024/01/24 07:21:39;;;;;;;1.45;1.33;;;;;;;;;;5029053;28;20524;-78
2024/01/24 07:24:05;;;;;;;;;;;7.20;99.90;;;;;;5029950;28;20069;-74
2024/01/24 07:26:31;;;;;;;5.88;3.25;;;;;;;;;;5036816;28;20003;-75
2024/01/24 07:28:56;;;;;;;6.93;3.53;;;7.10;99.90;;;;;;5042373;28;20029;-75
2024/01/24 07:31:22;;;;;;;6.50;2.47;;;;;;;;;;5047600;28;20024;-77
2024/01/24 07:33:48;;;;;;;5.15;3.10;;;;;;;;;;5045226;28;20785;-76
2024/01/24 07:36:14;;;;;;;13.15;5.97;;;7.00;99.90;;;;;;5046908;28;20049;-76
2024/01/24 07:38:40;;;;;;;13.93;4.90;;;;;;;;;;5043747;28;20071;-77
2024/01/24 07:41:07;;;;;;;15.85;3.70;;;7.00;99.90;;;;;;5037332;28;20547;-76
2024/01/24 07:43:33;;;;;;;10.70;3.72;;;;;;;;;;5039594;28;20053;-77
2024/01/24 07:45:59;;;;;;;3.38;1.92;;;;;;;;;;5027625;28;20557;-75
2024/01/24 07:48:25;;;;;;;2.30;2.05;;;;;;;;;;5039087;28;20028;-77
2024/01/24 07:50:51;;;;;;;5.90;1.95;;;;;;;;;;5048410;28;20441;-75
2024/01/24 07:53:17;;;;;;;11.18;4.00;;;7.90;99.90;;;;;;5040173;28;20025;-77
2024/01/24 07:55:43;;;;;;;7.93;3.67;;;;;;;;;;5048373;28;20079;-75
2024/01/24 07:58:09;;;;;;;6.13;2.85;;;;;;;;;;5046155;28;20037;-76
2024/01/24 08:00:35;;;;;;;6.85;3.22;;;7.80;99.90;;;;;;5048329;28;20032;-76
2024/01/24 08:03:00;;;;;;;5.25;3.17;;;7.80;99.90;;;;;;5047906;28;20029;-76
2024/01/24 08:05:29;;;;;;;39.95;13.45;;;;;;;;;;5036284;28;20086;-77
2024/01/24 08:07:55;;;;;;;55.30;20.05;;;;;;;;;;5044878;28;20523;-77
2024/01/24 08:10:21;;;;;;;33.22;16.02;;;;;;;;;;5047088;28;20555;-75
2024/01/24 08:12:49;;;;;;;36.80;13.43;;;;;;;;;;5030882;28;20060;-76
2024/01/24 08:15:15;;;;;;;18.15;8.93;;;;;;;;;;5028965;28;20132;-77
2024/01/24 08:17:41;;;;;;;24.98;9.98;;;8.30;99.90;;;;;;5028498;28;20029;-76
2024/01/24 08:20:08;;;;;;;19.63;8.98;;;;;;;;;;5028343;28;20026;-77
2024/01/24 08:22:34;;;;;;;;;;;8.30;99.90;;;;;;5029656;28;20075;-75
2024/01/24 08:25:00;;;;;;;9.43;5.07;;;;;;;;;;5028737;28;19921;-76
2024/01/24 08:27:26;;;;;;;12.73;5.40;;;;;;;;;;5030624;28;20068;-74
2024/01/24 08:29:53;;;;;;;6.45;4.03;;;;;;;;;;5030389;28;20033;-74
2024/01/24 08:32:19;;;;;;;8.70;4.72;;;;;;;;;;5034038;28;20021;-75
2024/01/24 08:34:45;;;;;;;14.45;4.35;;;;;;;;;;5035144;28;20100;-75
2024/01/24 08:37:12;;;;;;;16.55;5.13;;;;;;;;;;5039854;28;20112;-76
2024/01/24 08:39:39;;;;;;;8.65;4.82;;;9.30;99.90;;;;;;5032783;28;20071;-75
2024/01/24 08:42:05;;;;;;;10.43;5.05;;;9.30;99.90;;;;;;5040734;28;20325;-76
2024/01/24 08:44:31;;;;;;;9.82;4.25;;;;;;;;;;5043215;28;20061;-76
2024/01/24 08:46:57;;;;;;;7.43;4.35;;;;;;;;;;5042520;28;20102;-77
2024/01/24 08:49:23;;;;;;;12.48;3.42;;;;;;;;;;5047455;28;20433;-77
2024/01/24 08:51:49;;;;;;;6.60;3.88;;;9.60;99.90;;;;;;5046319;28;20025;-73
2024/01/24 08:54:14;;;;;;;10.68;4.80;;;9.70;99.90;;;;;;5043696;28;20509;-75
2024/01/24 08:56:41;;;;;;;6.53;3.13;;;9.70;99.90;;;;;;5034281;28;20025;-74
2024/01/24 08:59:07;;;;;;;8.30;3.40;;;;;;;;;;5047466;28;20508;-74
2024/01/24 09:01:33;;;;;;;5.13;2.97;;;9.80;99.90;;;;;;5046603;28;20021;-74
2024/01/24 09:03:59;;;;;;;6.65;4.95;;;9.90;99.90;;;;;;5047446;28;20631;-74
2024/01/24 09:06:25;;;;;;;7.80;3.25;;;;;;;;;;5032932;28;20417;-74
2024/01/24 09:08:52;;;;;;;7.13;4.65;;;;;;;;;;5047183;28;20032;-74
2024/01/24 09:11:21;;;;;;;6.90;3.15;;;10.20;99.90;;;;;;5042061;28;20633;-74
2024/01/24 09:13:48;;;;;;;7.32;3.83;;;10.20;99.90;;;;;;5036526;28;20090;-74
2024/01/24 09:16:14;;;;;;;6.18;3.63;;;10.30;99.90;;;;;;5028310;28;20029;-75
2024/01/24 09:18:40;;;;;;;5.40;2.83;;;10.20;99.90;;;;;;5038014;28;20029;-75
2024/01/24 09:21:06;;;;;;;6.45;3.67;;;;;;;;;;5030748;28;20021;-76
2024/01/24 09:23:33;;;;;;;6.60;3.20;;;;;;;;;;5031089;28;20415;-76
2024/01/24 09:25:59;;;;;;;10.77;4.35;;;;;;;;;;5031751;28;20029;-75
2024/01/24 09:28:24;;;;;;;6.72;3.67;;;10.70;99.90;;;;;;5031259;28;20018;-75
2024/01/24 09:30:50;;;;;;;6.43;3.65;;;10.70;99.90;;;;;;5032051;28;20100;-75
2024/01/24 09:33:16;;;;;;;6.50;2.78;;;10.70;99.90;;;;;;5032633;28;20030;-74
2024/01/24 09:35:44;;;;;;;14.70;5.47;;;;;;;;;;5032548;28;20032;-74
2024/01/24 09:38:10;;;;;;;10.85;4.45;;;;;;;;;;5032044;28;20020;-79
2024/01/24 09:40:36;;;;;;;5.70;3.42;;;;;;;;;;5032384;28;20068;-73
2024/01/24 09:43:02;;;;;;;6.18;3.63;;;;;;;;;;5031662;28;20061;-73
2024/01/24 09:45:29;;;;;;;5.80;3.78;;;;;;;;;;5030861;28;20029;-73
2024/01/24 09:47:58;;;;;;;7.82;2.95;;;13.00;95.00;;;;;;5031548;28;20030;-73
2024/01/24 09:50:25;;;;;;;6.63;4.13;;;13.20;94.20;;;;;;5031703;28;20037;-73
2024/01/24 09:52:51;;;;;;;4.78;2.50;;;13.70;93.60;;;;;;5032023;28;20100;-73
2024/01/24 09:55:18;;;;;;;5.95;2.70;;;14.20;93.50;;;;;;5031932;28;20053;-73
2024/01/24 09:57:47;;;;;;;;;;;14.20;92.50;;;;;;5031140;28;20025;-74
2024/01/24 10:00:16;;;;;;;4.90;2.05;;;;;;;;;;5030086;28;19933;-74
2024/01/24 10:02:46;;;;;;;4.25;2.63;;;14.10;95.60;;;;;;5031853;28;20486;-74
2024/01/24 10:05:21;;;;;;;5.63;2.00;;;13.80;91.30;;;;;;5019714;28;20180;-78
2024/01/24 10:07:47;;;;;;;5.53;2.67;;;;;;;;;;5031893;28;20021;-78
2024/01/24 10:10:13;;;;;;;6.63;2.17;;;13.60;92.40;;;;;;5030312;28;20025;-73
2024/01/24 10:12:42;;;;;;;4.32;2.63;;;13.50;92.60;;;;;;5032053;28;20022;-73
2024/01/24 10:15:09;;;;;;;3.97;3.00;;;13.50;99.90;;;;;;5044881;28;20022;-74
2024/01/24 10:17:35;;;;;;;6.65;3.25;;;;;;;;;;5045015;28;20025;-74
2024/01/24 10:20:01;;;;;;;5.03;2.40;;;;;;;;;;5049671;28;20402;-74
2024/01/24 10:22:27;;;;;;;3.28;1.95;;;;;;;;;;5049697;28;20549;-75
2024/01/24 10:24:56;;;;;;;5.38;2.63;;;16.50;90.10;;;;;;5049709;28;20029;-74
2024/01/24 10:27:22;;;;;;;3.65;2.20;;;;;;;;;;5049082;28;20052;-74
2024/01/24 10:29:48;;;;;;;6.22;2.60;;;16.00;95.60;;;;;;5049130;28;20039;-73
2024/01/24 10:32:14;;;;;;;4.15;3.10;;;;;;;;;;5047748;28;20389;-75
2024/01/24 10:34:40;;;;;;;5.93;2.20;;;;;;;;;;5049008;28;20037;-74
2024/01/24 10:37:07;;;;;;;5.15;1.75;;;16.20;84.60;;;;;;5048627;28;20035;-75
2024/01/24 10:39:39;;;;;;;2.97;1.45;;;16.60;82.60;;;;;;5049198;28;20020;-74
2024/01/24 10:42:09;;;;;;;3.78;1.52;;;;;;;;;;5047957;28;20025;-77
2024/01/24 10:44:35;;;;;;;6.32;2.22;;;16.70;79.00;;;;;;5049040;28;20457;-74
2024/01/24 10:47:04;;;;;;;3.78;2.70;;;16.70;79.60;;;;;;5048430;28;20130;-76
2024/01/24 10:49:31;;;;;;;6.80;2.75;;;18.10;94.10;;;;;;5044893;28;20137;-75
2024/01/24 10:51:57;;;;;;;3.97;2.13;;;17.30;74.90;;;;;;5047520;28;20013;-74
2024/01/24 10:54:23;;;;;;;2.78;1.70;;;;;;;;;;5047301;28;20283;-74
2024/01/24 10:56:50;;;;;;;1.30;1.20;;;19.30;70.10;;;;;;5035600;28;20402;-76
2024/01/24 10:59:17;;;;;;;3.72;1.40;;;19.10;70.10;;;;;;5034660;28;20033;-75
2024/01/24 11:01:43;;;;;;;3.67;1.50;;;18.90;75.40;;;;;;5037786;28;20028;-73
2024/01/24 11:04:10;;;;;;;2.47;1.10;;;18.80;89.20;;;;;;5034266;28;20091;-73
2024/01/24 11:06:59;;;;;;;1.67;0.80;;;19.00;66.70;;;;;;5037991;28;20843;-73
2024/01/24 11:09:27;;;;;;;1.48;0.82;;;19.80;79.30;;;;;;5031344;28;20034;-73
2024/01/24 11:11:56;;;;;;;2.90;0.90;;;19.90;69.20;;;;;;5030680;28;20029;-73
2024/01/24 11:14:32;;;;;;;3.53;1.13;;;20.50;80.10;;;;;;5032380;28;20060;-74
2024/01/24 11:16:59;;;;;;;1.75;1.20;;;;;;;;;;5029617;28;20071;-73
2024/01/24 11:19:26;;;;;;;1.80;0.80;;;;;;;;;;5030123;28;20036;-73
2024/01/24 11:21:53;;;;;;;5.07;1.10;;;21.40;70.90;;;;;;5029681;28;20026;-73
2024/01/24 11:24:38;;;;;;;1.42;0.65;;;20.40;61.80;;;;;;5029479;28;20045;-74
2024/01/24 11:27:04;;;;;;;3.25;0.80;;;;;;;;;;5042301;28;20029;-73
2024/01/24 11:29:34;;;;;;;0.90;0.68;;;20.90;80.50;;;;;;5033584;28;20032;-73
2024/01/24 11:31:59;;;;;;;0.88;0.70;;;21.50;68.70;;;;;;5024156;28;20028;-73
2024/01/24 11:34:27;;;;;;;4.53;0.90;;;21.80;57.90;;;;;;5036207;28;20490;-73
2024/01/24 11:36:53;;;;;;;1.55;1.10;;;24.60;58.20;;;;;;5035124;28;20040;-74
2024/01/24 11:39:37;;;;;;;2.08;1.13;;;28.10;52.10;;;;;;5034634;28;20120;-77
2024/01/24 11:42:25;;;;;;;1.73;0.40;;;29.30;46.30;;;;;;5037041;28;20021;-77
2024/01/24 11:44:55;;;;;;;1.95;0.82;;;31.10;47.70;;;;;;4997577;28;20074;-78
2024/01/24 11:47:22;;;;;;;0.60;0.40;;;31.80;59.10;;;;;;4996628;28;20522;-75
2024/01/24 11:49:48;;;;;;;;;;;32.30;43.90;;;;;;4995191;28;20050;-76
2024/01/24 11:52:21;;;;;;;0.97;0.50;;;30.00;53.00;;;;;;4997149;28;19955;-77
2024/01/24 11:54:51;;;;;;;1.50;0.60;;;28.10;42.30;;;;;;4994095;28;20121;-77
2024/01/24 11:57:17;;;;;;;0.90;0.45;;;;;;;;;;4994072;28;20026;-77
2024/01/24 11:59:43;;;;;;;2.75;0.95;;;;;;;;;;4995985;28;20507;-77
2024/01/24 12:02:09;;;;;;;1.67;0.50;;;22.90;67.80;;;;;;4994271;28;20026;-75
2024/01/24 12:04:34;;;;;;;1.38;0.50;;;21.20;51.10;;;;;;4991978;28;20092;-75
2024/01/24 12:07:01;;;;;;;0.50;0.40;;;20.00;72.60;;;;;;4992306;28;20030;-76
2024/01/24 12:09:27;;;;;;;0.90;0.60;;;19.60;74.30;;;;;;4996149;28;20029;-77
2024/01/24 12:11:52;;;;;;;0.45;0.20;;;19.20;75.40;;;;;;4989507;28;20026;-75
2024/01/24 12:14:19;;;;;;;0.47;0.47;;;19.40;56.20;;;;;;5003486;28;20034;-77
2024/01/24 12:16:46;;;;;;;0.63;0.32;;;;;;;;;;4997139;28;20022;-77
2024/01/24 12:19:12;;;;;;;1.48;0.32;;;;;;;;;;4994204;28;20038;-76
2024/01/24 12:21:38;;;;;;;1.00;0.38;;;;;;;;;;4989015;28;20449;-76
2024/01/24 12:24:04;;;;;;;0.52;0.35;;;;;;;;;;4988617;28;20300;-76
2024/01/24 12:26:30;;;;;;;0.60;0.45;;;;;;;;;;4989405;28;20026;-76
2024/01/24 12:28:56;;;;;;;0.47;0.40;;;;;;;;;;4988608;28;20415;-77
2024/01/24 12:31:28;;;;;;;2.05;0.57;;;19.30;56.10;;;;;;4996715;28;20026;-77
2024/01/24 12:33:55;;;;;;;0.38;0.30;;;19.30;75.80;;;;;;5006453;28;20045;-77
2024/01/24 12:36:22;;;;;;;14.73;6.77;;;19.30;56.30;;;;;;5007693;28;20025;-77
2024/01/24 12:38:50;;;;;;;2.97;1.55;;;;;;;;;;5006612;28;20264;-75
2024/01/24 12:41:17;;;;;;;4.88;2.35;;;20.30;71.00;;;;;;5007830;28;20046;-76
2024/01/24 12:43:43;;;;;;;2.55;1.45;;;;;;;;;;5002793;28;20157;-75
2024/01/24 12:46:12;;;;;;;2.05;0.90;;;21.80;52.50;;;;;;4997987;28;20529;-75
2024/01/24 12:48:38;;;;;;;0.70;0.50;;;;;;;;;;5005157;28;20022;-75
2024/01/24 12:51:04;;;;;;;0.45;0.45;;;;;;;;;;5008006;28;20034;-75
2024/01/24 12:53:31;;;;;;;0.40;0.40;;;;;;;;;;4996449;28;20076;-75
2024/01/24 12:55:57;;;;;;;0.32;0.30;;;;;;;;;;5007221;28;20041;-75
2024/01/24 12:58:23;;;;;;;0.70;0.50;;;;;;;;;;5006084;28;20022;-75
2024/01/24 13:00:49;;;;;;;1.42;0.95;;;;;;;;;;5006690;28;20125;-74
2024/01/24 13:03:15;;;;;;;0.95;0.57;;;;;;;;;;5006170;28;20105;-75
2024/01/24 13:05:41;;;;;;;0.43;0.43;;;;;;;;;;5006781;28;20388;-75
2024/01/24 13:08:09;;;;;;;0.75;0.45;;;22.10;51.70;;;;;;5005613;28;20101;-75
2024/01/24 13:10:36;;;;;;;0.43;0.40;;;22.00;55.70;;;;;;5006495;28;20037;-75
2024/01/24 13:13:04;;;;;;;0.45;0.30;;;;;;;;;;4988220;28;20038;-75
2024/01/24 13:15:32;;;;;;;0.20;0.20;;;21.60;58.90;;;;;;4987961;28;20030;-75
2024/01/24 13:17:58;;;;;;;0.90;0.30;;;21.30;70.20;;;;;;4993252;28;20026;-75
2024/01/24 13:20:24;;;;;;;1.88;0.30;;;21.30;65.20;;;;;;5007765;28;20064;-76
2024/01/24 13:22:50;;;;;;;0.70;0.30;;;;;;;;;;5006608;28;20398;-75
2024/01/24 13:25:15;;;;;;;0.30;0.30;;;20.90;69.90;;;;;;5006792;28;20037;-75
2024/01/24 13:27:44;;;;;;;0.30;0.20;;;;;;;;;;5005793;28;20030;-75
2024/01/24 13:30:10;;;;;;;2.58;0.40;;;19.80;62.80;;;;;;5007083;28;20054;-75
2024/01/24 13:32:37;;;;;;;0.82;0.50;;;;;;;;;;4995927;28;20068;-74
2024/01/24 13:35:03;;;;;;;0.55;0.40;;;18.90;74.80;;;;;;5006543;28;20107;-75
2024/01/24 13:37:29;;;;;;;0.63;0.60;;;;;;;;;;5005264;28;20459;-75
2024/01/24 13:39:55;;;;;;;0.57;0.57;;;18.60;76.20;;;;;;5006432;28;20032;-75
2024/01/24 13:42:21;;;;;;;2.30;0.45;;;;;;;;;;5004736;28;20404;-75
2024/01/24 13:44:46;;;;;;;0.30;0.30;;;18.50;70.00;;;;;;5006555;28;20042;-75
2024/01/24 13:47:12;;;;;;;0.60;0.40;;;;;;;;;;5005178;28;20017;-76
2024/01/24 13:49:41;;;;;;;0.40;0.40;;;17.40;58.20;;;;;;5006348;28;20473;-75
2024/01/24 13:52:07;;;;;;;0.40;0.40;;;;;;;;;;5005733;28;20025;-75
2024/01/24 13:54:33;;;;;;;0.77;0.57;;;;;;;;;;5007277;28;20110;-75
2024/01/24 13:56:59;;;;;;;0.40;0.40;;;;;;;;;;5005742;28;20109;-75
2024/01/24 13:59:25;;;;;;;0.47;0.47;;;;;;;;;;5006052;28;20103;-75
2024/01/24 14:01:51;;;;;;;0.35;0.35;;;;;;;;;;5005206;28;20026;-75
2024/01/24 14:04:17;;;;;;;0.70;0.50;;;;;;;;;;5006372;28;20117;-76